createdAt,value
2022-08-11T00:01:26.188Z,101307.10
2022-08-11T00:03:57.497Z,101312.23
2022-08-11T00:06:52.680Z,101314.17
2022-08-11T00:09:31.400Z,101314.19
2022-08-11T00:12:00.552Z,101311.71
2022-08-11T00:14:36.770Z,101310.32
2022-08-11T00:17:09.997Z,101307.14
2022-08-11T00:20:14.102Z,101305.93
2022-08-11T00:22:32.579Z,101307.02
2022-08-11T00:25:10.152Z,101303.67
2022-08-11T00:27:40.457Z,101304.39
2022-08-11T00:30:11.491Z,101305.63
2022-08-11T00:32:44.193Z,101304.92
2022-08-11T00:35:55.614Z,101307.20
2022-08-11T00:38:07.986Z,101303.14
2022-08-11T00:40:51.086Z,101300.33
2022-08-11T00:43:22.411Z,101293.96
2022-08-11T00:46:12.137Z,101293.95
2022-08-11T00:49:26.444Z,101294.50
2022-08-11T00:52:13.156Z,101296.09
2022-08-11T00:55:21.149Z,101296.98
2022-08-11T00:58:26.935Z,101295.04
2022-08-11T01:01:02.015Z,101299.45
2022-08-11T01:04:06.035Z,101303.88
2022-08-11T01:07:07.440Z,101299.80
2022-08-11T01:09:53.863Z,101303.86
2022-08-11T01:12:41.005Z,101297.86
2022-08-11T01:15:55.830Z,101303.67
2022-08-11T01:19:04.265Z,101299.62
2022-08-11T01:22:05.794Z,101296.80
2022-08-11T01:25:02.113Z,101298.20
2022-08-11T01:28:18.835Z,101301.02
2022-08-11T01:31:23.802Z,101303.64
2022-08-11T01:34:04.527Z,101308.41
2022-08-11T01:37:14.253Z,101308.23
2022-08-11T01:40:10.371Z,101304.87
2022-08-11T01:43:02.923Z,101302.39
2022-08-11T01:45:55.641Z,101301.34
2022-08-11T01:48:35.920Z,101300.81
2022-08-11T01:51:31.063Z,101300.29
2022-08-11T01:54:11.369Z,101302.06
2022-08-11T01:57:13.705Z,101305.59
2022-08-11T01:59:50.747Z,101305.95
2022-08-11T02:02:50.200Z,101305.97
2022-08-11T02:05:46.410Z,101307.02
2022-08-11T02:08:33.415Z,101311.96
2022-08-11T02:11:35.133Z,101316.39
2022-08-11T02:14:13.208Z,101318.51
2022-08-11T02:16:56.554Z,101320.80
2022-08-11T02:20:31.022Z,101319.21
2022-08-11T02:24:03.793Z,101326.27
2022-08-11T02:26:40.333Z,101329.09
2022-08-11T02:29:17.909Z,101327.67
2022-08-11T02:32:32.991Z,101329.10
2022-08-11T02:35:14.536Z,101328.02
2022-08-11T02:37:52.193Z,101328.55
2022-08-11T02:40:35.159Z,101329.61
2022-08-11T02:43:29.592Z,101326.45
2022-08-11T02:46:19.262Z,101324.15
2022-08-11T02:49:24.126Z,101320.45
2022-08-11T02:52:22.827Z,101324.67
2022-08-11T02:55:13.454Z,101325.39
2022-08-11T02:58:27.373Z,101332.80
2022-08-11T03:01:15.133Z,101334.04
2022-08-11T03:03:43.425Z,101332.61
2022-08-11T03:06:23.646Z,101328.55
2022-08-11T03:09:11.512Z,101330.15
2022-08-11T03:12:27.826Z,101326.63
2022-08-11T03:15:37.761Z,101326.61
2022-08-11T03:18:07.009Z,101323.77
2022-08-11T03:21:07.459Z,101320.95
2022-08-11T03:23:54.991Z,101320.23
2022-08-11T03:26:39.245Z,101323.42
2022-08-11T03:29:27.616Z,101319.73
2022-08-11T03:32:02.476Z,101319.55
2022-08-11T03:34:36.938Z,101316.36
2022-08-11T03:37:50.644Z,101320.27
2022-08-11T03:40:37.625Z,101319.38
2022-08-11T03:43:27.131Z,101321.31
2022-08-11T03:46:27.645Z,101318.16
2022-08-11T03:49:21.161Z,101318.32
2022-08-11T03:52:02.500Z,101325.03
2022-08-11T03:54:56.490Z,101321.31
2022-08-11T03:58:04.009Z,101317.63
2022-08-11T04:01:23.221Z,101319.57
2022-08-11T04:04:37.852Z,101320.08
2022-08-11T04:07:17.662Z,101320.80
2022-08-11T04:10:04.199Z,101315.69
2022-08-11T04:12:51.267Z,101316.21
2022-08-11T04:15:45.052Z,101316.39
2022-08-11T04:18:32.238Z,101316.05
2022-08-11T04:21:28.646Z,101312.86
2022-08-11T04:24:37.066Z,101315.49
2022-08-11T04:27:37.024Z,101310.54
2022-08-11T04:30:31.545Z,101310.92
2022-08-11T04:33:12.017Z,101315.13
2022-08-11T04:35:48.668Z,101316.17
2022-08-11T04:38:36.936Z,101324.27
2022-08-11T04:41:33.738Z,101320.14
2022-08-11T04:44:28.607Z,101322.36
2022-08-11T04:48:03.638Z,101319.98
2022-08-11T04:51:17.550Z,101321.13
2022-08-11T04:54:28.534Z,101318.75
2022-08-11T04:57:24.800Z,101327.54
2022-08-11T05:00:26.044Z,101328.10
2022-08-11T05:03:09.330Z,101328.54
2022-08-11T05:06:11.951Z,101327.00
2022-08-11T05:08:46.225Z,101330.42
2022-08-11T05:11:29.513Z,101329.38
2022-08-11T05:14:31.265Z,101320.65
2022-08-11T05:17:43.580Z,101321.21
2022-08-11T05:20:31.683Z,101318.52
2022-08-11T05:23:27.725Z,101320.61
2022-08-11T05:26:46.487Z,101326.50
2022-08-11T05:29:45.639Z,101328.96
2022-08-11T05:32:36.374Z,101325.27
2022-08-11T05:35:08.018Z,101327.73
2022-08-11T05:38:03.230Z,101332.41
2022-08-11T05:40:53.091Z,101322.59
2022-08-11T05:44:21.113Z,101315.98
2022-08-11T05:47:01.747Z,101319.32
2022-08-11T05:49:50.888Z,101320.55
2022-08-11T05:52:43.823Z,101320.95
2022-08-11T05:55:35.118Z,101324.45
2022-08-11T05:58:06.871Z,101320.63
2022-08-11T06:00:46.600Z,101322.54
2022-08-11T06:03:27.466Z,101322.25
2022-08-11T06:05:58.777Z,101319.51
2022-08-11T06:08:32.986Z,101321.91
2022-08-11T06:11:05.297Z,101318.73
2022-08-11T06:13:35.649Z,101323.78
2022-08-11T06:16:07.008Z,101324.23
2022-08-11T06:18:37.215Z,101319.71
2022-08-11T06:21:11.570Z,101318.89
2022-08-11T06:23:42.562Z,101324.86
2022-08-11T06:26:14.137Z,101319.14
2022-08-11T06:28:45.612Z,101321.87
2022-08-11T06:31:18.897Z,101320.50
2022-08-11T06:34:27.648Z,101323.60
2022-08-11T06:37:07.984Z,101320.08
2022-08-11T06:40:01.338Z,101313.72
2022-08-11T06:42:55.825Z,101313.52
2022-08-11T06:45:30.880Z,101311.09
2022-08-11T06:48:01.062Z,101316.06
2022-08-11T06:50:50.418Z,101315.69
2022-08-11T06:53:19.738Z,101320.06
2022-08-11T06:56:19.220Z,101322.48
2022-08-11T06:59:08.112Z,101322.42
2022-08-11T07:02:05.419Z,101324.23
2022-08-11T07:04:45.029Z,101322.37
2022-08-11T07:07:49.855Z,101318.60
2022-08-11T07:10:48.122Z,101315.91
2022-08-11T07:13:45.436Z,101324.73
2022-08-11T07:16:24.339Z,101321.19
2022-08-11T07:19:25.458Z,101313.34
2022-08-11T07:22:16.045Z,101317.84
2022-08-11T07:25:32.945Z,101319.96
2022-08-11T07:28:30.993Z,101321.27
2022-08-11T07:31:07.532Z,101323.56
2022-08-11T07:34:07.860Z,101318.36
2022-08-11T07:36:43.017Z,101315.52
2022-08-11T07:39:18.861Z,101321.00
2022-08-11T07:41:49.368Z,101326.85
2022-08-11T07:44:18.335Z,101326.48
2022-08-11T07:47:08.035Z,101328.02
2022-08-11T07:49:57.681Z,101325.21
2022-08-11T07:52:31.078Z,101321.48
2022-08-11T07:55:08.525Z,101324.02
2022-08-11T07:58:16.576Z,101328.27
2022-08-11T08:01:21.860Z,101331.30
2022-08-11T08:04:10.083Z,101328.31
2022-08-11T08:06:58.612Z,101325.36
2022-08-11T08:09:45.645Z,101326.21
2022-08-11T08:12:34.152Z,101327.05
2022-08-11T08:15:26.065Z,101327.61
2022-08-11T08:18:20.477Z,101329.46
2022-08-11T08:20:48.184Z,101323.55
2022-08-11T08:23:33.565Z,101327.70
2022-08-11T08:26:30.540Z,101331.80
2022-08-11T08:29:20.794Z,101325.66
2022-08-11T08:31:50.117Z,101325.66
2022-08-11T08:34:19.097Z,101322.69
2022-08-11T08:36:51.808Z,101328.43
2022-08-11T08:39:21.994Z,101320.48
2022-08-11T08:41:55.077Z,101320.10
2022-08-11T08:44:38.524Z,101315.53
2022-08-11T08:47:42.431Z,101313.91
2022-08-11T08:50:16.776Z,101310.92
2022-08-11T08:52:55.001Z,101305.99
2022-08-11T08:55:24.301Z,101305.81
2022-08-11T08:57:56.599Z,101302.40
2022-08-11T09:00:25.424Z,101297.45
2022-08-11T09:02:54.086Z,101298.11
2022-08-11T09:05:26.098Z,101292.48
2022-08-11T09:07:55.377Z,101291.90
2022-08-11T09:10:25.105Z,101287.27
2022-08-11T09:12:53.867Z,101283.45
2022-08-11T09:15:23.887Z,101281.88
2022-08-11T09:17:58.469Z,101282.80
2022-08-11T09:20:29.449Z,101284.66
2022-08-11T09:26:30.755Z,101287.63
2022-08-11T09:29:01.934Z,101283.10
2022-08-11T09:31:38.988Z,101286.91
2022-08-11T09:34:11.248Z,101277.71
2022-08-11T09:37:01.642Z,101278.32
2022-08-11T09:39:49.935Z,101280.88
2022-08-11T09:42:23.148Z,101279.64
2022-08-11T09:44:53.880Z,101277.70
2022-08-11T09:47:28.670Z,101276.50
2022-08-11T09:50:01.939Z,101273.56
2022-08-11T09:52:36.026Z,101271.13
2022-08-11T09:55:11.591Z,101269.61
2022-08-11T09:58:00.381Z,101267.52
2022-08-11T10:00:38.013Z,101269.11
2022-08-11T10:03:11.775Z,101269.29
2022-08-11T10:06:07.751Z,101269.33
2022-08-11T10:08:39.477Z,101264.84
2022-08-11T10:11:12.037Z,101259.66
2022-08-11T10:14:33.971Z,101249.30
2022-08-11T10:16:53.402Z,101249.58
2022-08-11T10:19:22.290Z,101243.45
2022-08-11T10:22:13.877Z,101244.90
2022-08-11T10:25:03.298Z,101237.70
2022-08-11T10:28:09.003Z,101234.56
2022-08-11T10:30:42.341Z,101234.16
2022-08-11T10:33:36.907Z,101236.16
2022-08-11T10:36:16.739Z,101233.06
2022-08-11T10:38:52.508Z,101225.44
2022-08-11T10:42:06.198Z,101227.10
2022-08-11T10:44:30.029Z,101226.30
2022-08-11T10:47:16.917Z,101226.76
2022-08-11T10:50:05.559Z,101221.12
2022-08-11T10:52:54.529Z,101218.23
2022-08-11T10:55:43.595Z,101208.30
2022-08-11T10:58:31.746Z,101206.89
2022-08-11T11:01:01.373Z,101203.27
2022-08-11T11:03:34.673Z,101208.05
2022-08-11T11:06:29.255Z,101207.26
2022-08-11T11:09:07.334Z,101204.55
2022-08-11T11:12:02.569Z,101201.45
2022-08-11T11:14:58.208Z,101197.20
2022-08-11T11:17:56.711Z,101194.02
2022-08-11T11:20:45.175Z,101191.26
2022-08-11T11:23:34.340Z,101185.45
2022-08-11T11:26:40.184Z,101186.89
2022-08-11T11:29:20.946Z,101185.11
2022-08-11T11:32:12.394Z,101181.67
2022-08-11T11:34:59.633Z,101181.84
2022-08-11T11:37:33.374Z,101182.77
2022-08-11T11:40:10.645Z,101179.64
2022-08-11T11:42:45.475Z,101179.63
2022-08-11T11:45:24.169Z,101178.95
2022-08-11T11:47:54.567Z,101179.19
2022-08-11T11:50:32.996Z,101180.21
2022-08-11T11:53:05.370Z,101176.75
2022-08-11T11:55:35.553Z,101180.18
2022-08-11T11:58:23.586Z,101177.39
2022-08-11T12:01:12.042Z,101174.50
2022-08-11T12:03:41.271Z,101168.98
2022-08-11T12:06:14.836Z,101167.94
2022-08-11T12:08:45.172Z,101168.39
2022-08-11T12:11:32.694Z,101160.48
2022-08-11T12:14:04.665Z,101160.60
2022-08-11T12:16:44.828Z,101155.84
2022-08-11T12:19:21.540Z,101155.84
2022-08-11T12:22:10.623Z,101150.56
2022-08-11T12:24:57.450Z,101145.36
2022-08-11T12:27:29.875Z,101144.00
2022-08-11T12:30:08.697Z,101138.44
2022-08-11T12:32:39.088Z,101136.94
2022-08-11T12:35:09.035Z,101135.86
2022-08-11T12:37:41.712Z,101130.50
2022-08-11T12:40:42.600Z,101127.52
2022-08-11T12:43:46.191Z,101121.11
2022-08-11T12:46:32.214Z,101120.38
2022-08-11T12:49:47.609Z,101123.48
2022-08-11T12:52:24.164Z,101117.66
2022-08-11T12:55:02.898Z,101121.24
2022-08-11T12:58:07.735Z,101119.02
2022-08-11T13:04:45.442Z,101108.48
2022-08-11T13:07:21.529Z,101110.80
2022-08-11T13:09:52.215Z,101109.64
2022-08-11T13:19:26.785Z,101100.61
2022-08-11T13:21:55.876Z,101100.35
2022-08-11T13:24:25.126Z,101099.23
2022-08-11T13:26:54.351Z,101090.94
2022-08-11T13:29:31.992Z,101092.20
2022-08-11T13:33:00.728Z,101088.41
2022-08-11T13:35:32.043Z,101085.29
2022-08-11T13:38:17.729Z,101086.88
2022-08-11T13:44:48.681Z,101078.66
2022-08-11T13:47:25.161Z,101072.83
2022-08-11T13:49:58.350Z,101065.27
2022-08-11T13:52:30.666Z,101066.41
2022-08-11T13:55:08.496Z,101065.52
2022-08-11T13:58:08.725Z,101066.06
2022-08-11T14:00:31.613Z,101059.80
2022-08-11T14:03:09.224Z,101058.50
2022-08-11T14:05:47.625Z,101055.90
2022-08-11T14:08:31.744Z,101056.52
2022-08-11T14:12:22.030Z,101059.09
2022-08-11T14:14:22.698Z,101053.38
2022-08-11T14:16:58.012Z,101054.30
2022-08-11T14:19:28.185Z,101048.39
2022-08-11T14:22:09.499Z,101050.59
2022-08-11T14:24:43.796Z,101041.95
2022-08-11T14:27:39.101Z,101042.27
2022-08-11T14:30:27.817Z,101035.48
2022-08-11T14:33:58.355Z,101029.77
2022-08-11T14:37:51.788Z,101032.14
2022-08-11T14:40:48.675Z,101034.27
2022-08-11T14:44:13.276Z,101031.48
2022-08-11T14:46:52.854Z,101025.23
2022-08-11T14:49:22.276Z,101021.48
2022-08-11T14:51:57.226Z,101016.66
2022-08-11T14:54:50.970Z,101015.20
2022-08-11T14:58:04.558Z,101015.83
2022-08-11T15:00:37.289Z,101012.97
2022-08-11T15:06:28.957Z,101012.17
2022-08-11T15:08:58.182Z,101009.91
2022-08-11T15:12:03.835Z,101008.52
2022-08-11T15:21:28.726Z,101002.90
2022-08-11T15:24:17.409Z,100996.80
2022-08-11T15:33:27.101Z,100987.02
2022-08-11T15:45:53.002Z,100988.58
2022-08-11T15:51:38.728Z,100993.73
2022-08-11T15:54:32.812Z,100992.20
2022-08-11T15:57:06.163Z,100990.88
2022-08-11T15:59:57.189Z,100993.14
2022-08-11T16:02:45.761Z,100995.05
2022-08-11T16:05:45.325Z,100992.68
2022-08-11T16:08:07.089Z,100982.65
2022-08-11T16:10:39.818Z,100989.91
2022-08-11T16:13:11.394Z,100987.86
2022-08-11T16:16:07.782Z,100983.59
2022-08-11T16:18:54.076Z,100990.13
2022-08-11T16:21:35.937Z,100990.05
2022-08-11T16:27:02.910Z,100988.27
2022-08-11T16:27:12.351Z,100991.60
2022-08-11T16:29:46.110Z,100992.09
2022-08-11T16:32:20.534Z,100994.50
2022-08-11T16:35:11.638Z,100989.34
2022-08-11T16:38:00.366Z,100990.49
2022-08-11T16:40:30.724Z,100995.73
2022-08-11T16:43:19.977Z,100997.20
2022-08-11T16:46:08.110Z,100991.03
2022-08-11T16:48:41.552Z,100990.02
2022-08-11T16:51:13.499Z,100993.43
2022-08-11T16:53:59.693Z,100995.38
2022-08-11T16:56:48.311Z,100999.70
2022-08-11T16:59:37.510Z,100997.48
2022-08-11T17:02:12.289Z,100998.16
2022-08-11T17:05:10.616Z,101004.08
2022-08-11T17:08:01.329Z,100999.77
2022-08-11T17:10:57.632Z,100994.13
2022-08-11T17:13:37.253Z,100999.59
2022-08-11T17:16:12.904Z,101003.92
2022-08-11T17:18:41.378Z,101005.58
2022-08-11T17:21:18.796Z,101002.49
2022-08-11T17:24:14.747Z,101001.52
2022-08-11T17:26:57.772Z,101003.48
2022-08-11T17:29:54.507Z,101005.90
2022-08-11T17:33:00.178Z,101009.79
2022-08-11T17:35:39.104Z,101013.58
2022-08-11T17:39:00.901Z,101015.44
2022-08-11T17:42:16.499Z,101016.48
2022-08-11T17:45:15.841Z,101016.30
2022-08-11T17:48:03.723Z,101011.44
2022-08-11T17:50:37.640Z,101012.34
2022-08-11T17:53:36.097Z,101016.73
2022-08-11T18:06:56.044Z,101029.89
2022-08-11T18:10:10.019Z,101030.06
2022-08-11T18:13:07.371Z,101028.15
2022-08-11T18:16:03.099Z,101031.91
2022-08-11T18:18:53.015Z,101032.83
2022-08-11T18:31:24.240Z,101040.58
2022-08-11T18:41:51.200Z,101041.85
2022-08-11T18:44:51.355Z,101045.40
2022-08-11T18:47:46.709Z,101040.42
2022-08-11T18:51:30.428Z,101038.73
2022-08-11T19:01:56.964Z,101039.23
2022-08-11T19:05:04.797Z,101038.88
2022-08-11T19:07:53.249Z,101036.59
2022-08-11T19:10:40.759Z,101035.02
2022-08-11T19:13:31.124Z,101038.03
2022-08-11T19:16:32.101Z,101036.60
2022-08-11T19:19:55.539Z,101042.11
2022-08-11T19:39:45.056Z,101048.11
2022-08-11T19:42:33.524Z,101047.15
2022-08-11T19:45:37.671Z,101048.89
2022-08-11T19:48:32.026Z,101048.34
2022-08-11T19:51:32.701Z,101049.58
2022-08-11T19:54:27.132Z,101046.20
2022-08-11T19:57:32.508Z,101046.54
2022-08-11T20:00:40.555Z,101041.34
2022-08-11T20:08:13.398Z,101048.67
2022-08-11T20:11:01.167Z,101049.55
2022-08-11T20:13:49.982Z,101047.79
2022-08-11T20:16:39.823Z,101050.80
2022-08-11T20:19:56.128Z,101049.70
2022-08-11T20:22:39.643Z,101055.97
2022-08-11T20:25:35.612Z,101063.02
2022-08-11T20:28:26.309Z,101053.08
2022-08-11T20:31:14.439Z,101054.15
2022-08-11T20:34:44.276Z,101056.08
2022-08-11T20:37:51.426Z,101062.55
2022-08-11T20:42:08.474Z,101069.69
2022-08-11T20:49:16.668Z,101065.23
2022-08-11T20:50:58.063Z,101067.95
2022-08-11T20:51:07.611Z,101071.13
2022-08-11T20:54:05.419Z,101063.96
2022-08-11T20:56:54.491Z,101065.44
2022-08-11T20:59:52.786Z,101067.63
2022-08-11T21:02:51.798Z,101071.97
2022-08-11T21:06:08.268Z,101071.33
2022-08-11T21:09:02.816Z,101070.48
2022-08-11T21:11:53.548Z,101069.85
2022-08-11T21:14:45.057Z,101067.95
2022-08-11T21:21:45.950Z,101070.66
2022-08-11T21:24:47.134Z,101076.59
2022-08-11T21:27:38.756Z,101080.45
2022-08-11T21:30:26.908Z,101083.73
2022-08-11T21:33:14.194Z,101083.98
2022-08-11T21:36:03.567Z,101085.11
2022-08-11T21:38:50.763Z,101083.93
2022-08-11T21:41:38.955Z,101088.23
2022-08-11T21:44:27.359Z,101091.67
2022-08-11T21:47:18.505Z,101086.98
2022-08-11T21:50:22.711Z,101090.95
2022-08-11T21:53:10.746Z,101093.83
2022-08-11T21:55:59.038Z,101095.27
2022-08-11T21:58:46.650Z,101102.05
2022-08-11T22:01:34.650Z,101098.55
2022-08-11T22:04:23.790Z,101099.63
2022-08-11T22:07:10.957Z,101102.70
2022-08-11T22:09:58.027Z,101103.11
2022-08-11T22:12:45.705Z,101101.74
2022-08-11T22:15:34.604Z,101101.22
2022-08-11T22:18:21.771Z,101104.41
2022-08-11T22:21:10.009Z,101099.63
2022-08-11T22:24:02.485Z,101098.93
2022-08-11T22:26:53.432Z,101097.52
2022-08-11T22:29:51.240Z,101096.80
2022-08-11T22:32:38.986Z,101097.14
2022-08-11T22:35:35.475Z,101094.11
2022-08-11T22:38:23.593Z,101093.95
2022-08-11T22:41:12.762Z,101093.02
2022-08-11T22:44:01.829Z,101091.06
2022-08-11T22:46:49.644Z,101094.05
2022-08-11T22:50:15.114Z,101094.56
2022-08-11T22:53:05.555Z,101092.77
2022-08-11T22:56:14.400Z,101092.59
2022-08-11T22:59:24.237Z,101096.45
2022-08-11T23:02:14.324Z,101096.77
2022-08-11T23:05:06.777Z,101099.27
2022-08-11T23:08:00.128Z,101094.46
2022-08-11T23:11:04.485Z,101092.85
2022-08-11T23:13:53.397Z,101087.55
2022-08-11T23:16:50.036Z,101083.84
2022-08-11T23:20:01.578Z,101080.48
2022-08-11T23:22:50.208Z,101077.83
2022-08-11T23:25:59.176Z,101075.86
2022-08-11T23:29:05.333Z,101074.42
2022-08-11T23:31:58.271Z,101073.38
2022-08-11T23:35:03.456Z,101076.72
2022-08-11T23:38:09.437Z,101076.73
2022-08-11T23:41:00.585Z,101074.27
2022-08-11T23:43:51.508Z,101074.09
2022-08-11T23:46:48.683Z,101079.42
2022-08-11T23:49:37.227Z,101077.67
2022-08-11T23:52:27.547Z,101083.02
2022-08-11T23:55:32.961Z,101079.14
2022-08-11T23:58:28.608Z,101078.81
